sensor_id;sensor_type;location;lat;lon;timestamp;P1;durP1;ratioP1;P2;durP2;ratioP2
52266;SDS011;38223;50.940;4.034;2022-08-06T00:00:43;5.42;;;1.12;;
52266;SDS011;38223;50.940;4.034;2022-08-06T00:03:13;4.20;;;1.07;;
52266;SDS011;38223;50.940;4.034;2022-08-06T00:05:45;2.70;;;1.00;;
52266;SDS011;38223;50.940;4.034;2022-08-06T00:08:18;6.67;;;0.93;;
52266;SDS011;38223;50.940;4.034;2022-08-06T00:10:54;2.77;;;0.90;;
52266;SDS011;38223;50.940;4.034;2022-08-06T00:13:27;2.52;;;0.85;;
52266;SDS011;38223;50.940;4.034;2022-08-06T00:15:57;3.20;;;0.90;;
52266;SDS011;38223;50.940;4.034;2022-08-06T00:18:31;2.60;;;0.70;;
52266;SDS011;38223;50.940;4.034;2022-08-06T00:21:01;3.62;;;0.90;;
52266;SDS011;38223;50.940;4.034;2022-08-06T00:23:34;4.78;;;0.70;;
52266;SDS011;38223;50.940;4.034;2022-08-06T00:26:07;2.77;;;0.70;;
52266;SDS011;38223;50.940;4.034;2022-08-06T00:28:40;2.25;;;1.02;;
52266;SDS011;38223;50.940;4.034;2022-08-06T00:31:12;5.35;;;0.82;;
52266;SDS011;38223;50.940;4.034;2022-08-06T00:33:46;5.10;;;0.70;;
52266;SDS011;38223;50.940;4.034;2022-08-06T00:36:15;6.35;;;1.00;;
52266;SDS011;38223;50.940;4.034;2022-08-06T00:38:48;3.85;;;1.22;;
52266;SDS011;38223;50.940;4.034;2022-08-06T00:41:23;4.87;;;1.12;;
52266;SDS011;38223;50.940;4.034;2022-08-06T00:43:59;4.83;;;1.10;;
52266;SDS011;38223;50.940;4.034;2022-08-06T00:46:32;3.20;;;0.90;;
52266;SDS011;38223;50.940;4.034;2022-08-06T00:49:03;4.00;;;0.90;;
52266;SDS011;38223;50.940;4.034;2022-08-06T00:51:37;2.42;;;0.80;;
52266;SDS011;38223;50.940;4.034;2022-08-06T00:54:11;5.12;;;1.45;;
52266;SDS011;38223;50.940;4.034;2022-08-06T00:56:42;2.87;;;0.90;;
52266;SDS011;38223;50.940;4.034;2022-08-06T00:59:17;3.45;;;0.80;;
52266;SDS011;38223;50.940;4.034;2022-08-06T01:01:47;6.62;;;1.00;;
52266;SDS011;38223;50.940;4.034;2022-08-06T01:04:19;2.05;;;0.80;;
52266;SDS011;38223;50.940;4.034;2022-08-06T01:06:54;4.15;;;1.10;;
52266;SDS011;38223;50.940;4.034;2022-08-06T01:09:28;3.42;;;1.07;;
52266;SDS011;38223;50.940;4.034;2022-08-06T01:12:04;1.85;;;0.70;;
52266;SDS011;38223;50.940;4.034;2022-08-06T01:14:37;4.22;;;0.95;;
52266;SDS011;38223;50.940;4.034;2022-08-06T01:17:14;3.17;;;0.88;;
52266;SDS011;38223;50.940;4.034;2022-08-06T01:22:32;3.33;;;1.00;;
52266;SDS011;38223;50.940;4.034;2022-08-06T01:30:32;4.35;;;0.85;;
52266;SDS011;38223;50.940;4.034;2022-08-06T01:33:06;2.22;;;0.88;;
52266;SDS011;38223;50.940;4.034;2022-08-06T01:35:44;2.72;;;1.00;;
52266;SDS011;38223;50.940;4.034;2022-08-06T01:38:34;6.25;;;1.15;;
52266;SDS011;38223;50.940;4.034;2022-08-06T01:41:07;4.00;;;0.75;;
52266;SDS011;38223;50.940;4.034;2022-08-06T01:43:37;5.60;;;1.00;;
52266;SDS011;38223;50.940;4.034;2022-08-06T01:46:09;3.17;;;0.72;;
52266;SDS011;38223;50.940;4.034;2022-08-06T01:48:44;3.25;;;0.90;;
52266;SDS011;38223;50.940;4.034;2022-08-06T01:51:17;3.10;;;1.10;;
52266;SDS011;38223;50.940;4.034;2022-08-06T01:53:52;4.15;;;0.90;;
52266;SDS011;38223;50.940;4.034;2022-08-06T01:56:26;3.22;;;0.62;;
52266;SDS011;38223;50.940;4.034;2022-08-06T01:59:07;5.45;;;0.90;;
52266;SDS011;38223;50.940;4.034;2022-08-06T02:01:42;5.20;;;1.37;;
52266;SDS011;38223;50.940;4.034;2022-08-06T02:04:17;3.22;;;1.05;;
52266;SDS011;38223;50.940;4.034;2022-08-06T02:06:58;5.67;;;1.10;;
52266;SDS011;38223;50.940;4.034;2022-08-06T02:09:28;3.30;;;0.90;;
52266;SDS011;38223;50.940;4.034;2022-08-06T02:12:17;5.00;;;1.50;;
52266;SDS011;38223;50.940;4.034;2022-08-06T02:14:52;2.10;;;0.80;;
52266;SDS011;38223;50.940;4.034;2022-08-06T02:17:30;4.62;;;0.90;;
52266;SDS011;38223;50.940;4.034;2022-08-06T02:20:00;2.45;;;0.90;;
52266;SDS011;38223;50.940;4.034;2022-08-06T02:22:37;4.05;;;0.75;;
52266;SDS011;38223;50.940;4.034;2022-08-06T02:25:09;4.03;;;0.98;;
52266;SDS011;38223;50.940;4.034;2022-08-06T02:27:46;4.75;;;0.80;;
52266;SDS011;38223;50.940;4.034;2022-08-06T02:30:18;2.60;;;0.88;;
52266;SDS011;38223;50.940;4.034;2022-08-06T02:32:51;5.03;;;0.95;;
52266;SDS011;38223;50.940;4.034;2022-08-06T02:35:26;6.90;;;1.12;;
52266;SDS011;38223;50.940;4.034;2022-08-06T02:38:02;3.87;;;0.65;;
52266;SDS011;38223;50.940;4.034;2022-08-06T02:40:33;7.65;;;1.00;;
52266;SDS011;38223;50.940;4.034;2022-08-06T02:43:07;3.15;;;0.80;;
52266;SDS011;38223;50.940;4.034;2022-08-06T02:45:47;2.65;;;0.90;;
52266;SDS011;38223;50.940;4.034;2022-08-06T02:48:21;4.97;;;0.82;;
52266;SDS011;38223;50.940;4.034;2022-08-06T02:50:55;4.83;;;1.15;;
52266;SDS011;38223;50.940;4.034;2022-08-06T02:53:32;4.28;;;1.10;;
52266;SDS011;38223;50.940;4.034;2022-08-06T02:56:06;5.60;;;0.90;;
52266;SDS011;38223;50.940;4.034;2022-08-06T02:58:41;5.58;;;1.20;;
52266;SDS011;38223;50.940;4.034;2022-08-06T03:01:29;5.10;;;1.20;;
52266;SDS011;38223;50.940;4.034;2022-08-06T03:03:52;2.95;;;1.10;;
52266;SDS011;38223;50.940;4.034;2022-08-06T03:06:32;3.45;;;0.90;;
52266;SDS011;38223;50.940;4.034;2022-08-06T03:09:05;5.12;;;1.10;;
52266;SDS011;38223;50.940;4.034;2022-08-06T03:11:39;2.42;;;1.25;;
52266;SDS011;38223;50.940;4.034;2022-08-06T03:14:16;4.85;;;1.30;;
52266;SDS011;38223;50.940;4.034;2022-08-06T03:16:49;6.40;;;1.85;;
52266;SDS011;38223;50.940;4.034;2022-08-06T03:19:26;2.90;;;1.25;;
52266;SDS011;38223;50.940;4.034;2022-08-06T03:22:00;4.80;;;1.62;;
52266;SDS011;38223;50.940;4.034;2022-08-06T03:24:36;2.58;;;0.95;;
52266;SDS011;38223;50.940;4.034;2022-08-06T03:27:10;5.45;;;1.20;;
52266;SDS011;38223;50.940;4.034;2022-08-06T03:29:45;4.92;;;1.02;;
52266;SDS011;38223;50.940;4.034;2022-08-06T03:32:19;5.08;;;1.55;;
52266;SDS011;38223;50.940;4.034;2022-08-06T03:34:54;3.15;;;1.30;;
52266;SDS011;38223;50.940;4.034;2022-08-06T03:37:27;3.72;;;1.50;;
52266;SDS011;38223;50.940;4.034;2022-08-06T03:40:03;2.95;;;1.05;;
52266;SDS011;38223;50.940;4.034;2022-08-06T03:42:36;2.33;;;1.10;;
52266;SDS011;38223;50.940;4.034;2022-08-06T03:45:09;2.83;;;0.78;;
52266;SDS011;38223;50.940;4.034;2022-08-06T03:47:43;4.45;;;1.05;;
52266;SDS011;38223;50.940;4.034;2022-08-06T03:50:15;3.30;;;0.98;;
52266;SDS011;38223;50.940;4.034;2022-08-06T03:52:52;4.75;;;1.22;;
52266;SDS011;38223;50.940;4.034;2022-08-06T03:55:25;5.87;;;1.50;;
52266;SDS011;38223;50.940;4.034;2022-08-06T03:58:01;4.97;;;1.40;;
52266;SDS011;38223;50.940;4.034;2022-08-06T04:00:42;4.20;;;1.40;;
52266;SDS011;38223;50.940;4.034;2022-08-06T04:03:09;2.25;;;0.90;;
52266;SDS011;38223;50.940;4.034;2022-08-06T04:05:46;4.25;;;1.32;;
52266;SDS011;38223;50.940;4.034;2022-08-06T04:08:15;5.08;;;1.10;;
52266;SDS011;38223;50.940;4.034;2022-08-06T04:10:51;6.62;;;1.10;;
52266;SDS011;38223;50.940;4.034;2022-08-06T04:13:22;3.25;;;1.57;;
52266;SDS011;38223;50.940;4.034;2022-08-06T04:15:57;5.95;;;1.32;;
52266;SDS011;38223;50.940;4.034;2022-08-06T04:18:31;3.37;;;1.22;;
52266;SDS011;38223;50.940;4.034;2022-08-06T04:21:05;3.77;;;1.60;;
52266;SDS011;38223;50.940;4.034;2022-08-06T04:23:37;3.58;;;1.02;;
52266;SDS011;38223;50.940;4.034;2022-08-06T04:26:11;4.55;;;1.30;;
52266;SDS011;38223;50.940;4.034;2022-08-06T04:28:46;3.05;;;1.15;;
52266;SDS011;38223;50.940;4.034;2022-08-06T04:31:14;5.83;;;1.47;;
52266;SDS011;38223;50.940;4.034;2022-08-06T04:33:51;4.75;;;1.40;;
52266;SDS011;38223;50.940;4.034;2022-08-06T04:36:24;5.58;;;1.40;;
52266;SDS011;38223;50.940;4.034;2022-08-06T04:39:00;3.27;;;1.20;;
52266;SDS011;38223;50.940;4.034;2022-08-06T04:41:35;2.70;;;1.22;;
52266;SDS011;38223;50.940;4.034;2022-08-06T04:44:09;5.47;;;1.60;;
52266;SDS011;38223;50.940;4.034;2022-08-06T04:46:45;4.90;;;1.20;;
52266;SDS011;38223;50.940;4.034;2022-08-06T04:49:16;2.92;;;1.22;;
52266;SDS011;38223;50.940;4.034;2022-08-06T04:51:50;3.47;;;1.32;;
52266;SDS011;38223;50.940;4.034;2022-08-06T04:54:23;5.00;;;1.17;;
52266;SDS011;38223;50.940;4.034;2022-08-06T04:56:53;5.25;;;1.10;;
52266;SDS011;38223;50.940;4.034;2022-08-06T04:59:27;5.50;;;1.20;;
52266;SDS011;38223;50.940;4.034;2022-08-06T05:01:58;2.58;;;1.22;;
52266;SDS011;38223;50.940;4.034;2022-08-06T05:04:30;3.17;;;1.70;;
52266;SDS011;38223;50.940;4.034;2022-08-06T05:09:54;3.75;;;1.50;;
52266;SDS011;38223;50.940;4.034;2022-08-06T05:12:35;3.45;;;1.40;;
52266;SDS011;38223;50.940;4.034;2022-08-06T05:15:16;7.92;;;1.30;;
52266;SDS011;38223;50.940;4.034;2022-08-06T05:18:05;3.80;;;1.47;;
52266;SDS011;38223;50.940;4.034;2022-08-06T05:20:40;3.62;;;1.17;;
52266;SDS011;38223;50.940;4.034;2022-08-06T05:23:18;5.67;;;1.70;;
52266;SDS011;38223;50.940;4.034;2022-08-06T05:26:05;4.17;;;1.40;;
52266;SDS011;38223;50.940;4.034;2022-08-06T05:28:40;4.90;;;1.50;;
52266;SDS011;38223;50.940;4.034;2022-08-06T05:31:14;6.40;;;1.80;;
52266;SDS011;38223;50.940;4.034;2022-08-06T05:33:47;3.92;;;1.52;;
52266;SDS011;38223;50.940;4.034;2022-08-06T05:36:22;4.00;;;1.70;;
52266;SDS011;38223;50.940;4.034;2022-08-06T05:38:53;6.20;;;1.95;;
52266;SDS011;38223;50.940;4.034;2022-08-06T05:41:27;5.45;;;2.05;;
52266;SDS011;38223;50.940;4.034;2022-08-06T05:43:58;6.12;;;2.00;;
52266;SDS011;38223;50.940;4.034;2022-08-06T05:46:57;3.47;;;1.67;;
52266;SDS011;38223;50.940;4.034;2022-08-06T05:49:38;8.70;;;2.05;;
52266;SDS011;38223;50.940;4.034;2022-08-06T05:52:19;6.08;;;1.90;;
52266;SDS011;38223;50.940;4.034;2022-08-06T05:55:05;2.83;;;1.52;;
52266;SDS011;38223;50.940;4.034;2022-08-06T05:57:36;3.30;;;2.10;;
52266;SDS011;38223;50.940;4.034;2022-08-06T06:00:24;6.97;;;2.10;;
52266;SDS011;38223;50.940;4.034;2022-08-06T06:02:56;6.72;;;2.25;;
52266;SDS011;38223;50.940;4.034;2022-08-06T06:05:33;11.03;;;2.22;;
52266;SDS011;38223;50.940;4.034;2022-08-06T06:08:07;4.65;;;1.80;;
52266;SDS011;38223;50.940;4.034;2022-08-06T06:10:40;8.10;;;1.92;;
52266;SDS011;38223;50.940;4.034;2022-08-06T06:13:11;7.17;;;2.27;;
52266;SDS011;38223;50.940;4.034;2022-08-06T06:16:08;5.95;;;2.22;;
52266;SDS011;38223;50.940;4.034;2022-08-06T06:18:52;4.60;;;2.15;;
52266;SDS011;38223;50.940;4.034;2022-08-06T06:24:34;6.20;;;2.10;;
52266;SDS011;38223;50.940;4.034;2022-08-06T06:27:11;5.75;;;2.00;;
52266;SDS011;38223;50.940;4.034;2022-08-06T06:29:59;7.22;;;2.08;;
52266;SDS011;38223;50.940;4.034;2022-08-06T06:32:39;4.67;;;1.82;;
52266;SDS011;38223;50.940;4.034;2022-08-06T06:41:28;4.85;;;1.70;;
52266;SDS011;38223;50.940;4.034;2022-08-06T06:47:00;4.20;;;1.45;;
52266;SDS011;38223;50.940;4.034;2022-08-06T06:49:32;3.90;;;1.52;;
52266;SDS011;38223;50.940;4.034;2022-08-06T06:52:13;4.72;;;1.50;;
52266;SDS011;38223;50.940;4.034;2022-08-06T06:54:51;4.67;;;1.70;;
52266;SDS011;38223;50.940;4.034;2022-08-06T06:57:29;4.60;;;1.72;;
52266;SDS011;38223;50.940;4.034;2022-08-06T06:59:54;3.08;;;1.40;;
52266;SDS011;38223;50.940;4.034;2022-08-06T07:02:30;6.80;;;1.40;;
52266;SDS011;38223;50.940;4.034;2022-08-06T07:05:00;5.37;;;1.40;;
52266;SDS011;38223;50.940;4.034;2022-08-06T07:07:38;5.12;;;1.32;;
52266;SDS011;38223;50.940;4.034;2022-08-06T07:10:08;5.53;;;1.40;;
52266;SDS011;38223;50.940;4.034;2022-08-06T07:12:45;4.03;;;1.50;;
52266;SDS011;38223;50.940;4.034;2022-08-06T07:15:17;3.87;;;1.40;;
52266;SDS011;38223;50.940;4.034;2022-08-06T07:17:55;6.60;;;1.50;;
52266;SDS011;38223;50.940;4.034;2022-08-06T07:20:27;4.60;;;1.37;;
52266;SDS011;38223;50.940;4.034;2022-08-06T07:23:03;7.65;;;2.08;;
52266;SDS011;38223;50.940;4.034;2022-08-06T07:25:36;6.20;;;1.60;;
52266;SDS011;38223;50.940;4.034;2022-08-06T07:28:08;4.15;;;1.57;;
52266;SDS011;38223;50.940;4.034;2022-08-06T07:30:44;5.72;;;1.70;;
52266;SDS011;38223;50.940;4.034;2022-08-06T07:33:15;4.28;;;1.50;;
52266;SDS011;38223;50.940;4.034;2022-08-06T07:35:50;4.78;;;1.75;;
52266;SDS011;38223;50.940;4.034;2022-08-06T07:38:23;5.40;;;1.30;;
52266;SDS011;38223;50.940;4.034;2022-08-06T07:41:04;3.77;;;1.50;;
52266;SDS011;38223;50.940;4.034;2022-08-06T07:43:51;7.00;;;1.40;;
52266;SDS011;38223;50.940;4.034;2022-08-06T07:46:29;4.05;;;1.20;;
52266;SDS011;38223;50.940;4.034;2022-08-06T07:49:01;6.87;;;1.20;;
52266;SDS011;38223;50.940;4.034;2022-08-06T07:51:35;5.10;;;1.30;;
52266;SDS011;38223;50.940;4.034;2022-08-06T07:54:09;5.58;;;0.95;;
52266;SDS011;38223;50.940;4.034;2022-08-06T07:56:42;2.20;;;0.75;;
52266;SDS011;38223;50.940;4.034;2022-08-06T07:59:12;3.17;;;0.98;;
52266;SDS011;38223;50.940;4.034;2022-08-06T08:01:48;3.90;;;0.95;;
52266;SDS011;38223;50.940;4.034;2022-08-06T08:04:19;4.67;;;0.90;;
52266;SDS011;38223;50.940;4.034;2022-08-06T08:07:06;5.62;;;1.05;;
52266;SDS011;38223;50.940;4.034;2022-08-06T08:09:41;7.55;;;1.00;;
52266;SDS011;38223;50.940;4.034;2022-08-06T08:12:16;4.62;;;1.07;;
52266;SDS011;38223;50.940;4.034;2022-08-06T08:14:47;4.20;;;1.30;;
52266;SDS011;38223;50.940;4.034;2022-08-06T08:17:20;4.15;;;0.80;;
52266;SDS011;38223;50.940;4.034;2022-08-06T08:19:55;3.25;;;1.00;;
52266;SDS011;38223;50.940;4.034;2022-08-06T08:22:28;5.05;;;1.02;;
52266;SDS011;38223;50.940;4.034;2022-08-06T08:25:02;2.90;;;0.90;;
52266;SDS011;38223;50.940;4.034;2022-08-06T08:27:34;3.33;;;0.88;;
52266;SDS011;38223;50.940;4.034;2022-08-06T08:30:05;5.97;;;0.90;;
52266;SDS011;38223;50.940;4.034;2022-08-06T08:32:38;5.67;;;0.95;;
52266;SDS011;38223;50.940;4.034;2022-08-06T08:35:15;2.17;;;0.80;;
52266;SDS011;38223;50.940;4.034;2022-08-06T08:37:44;3.47;;;0.90;;
52266;SDS011;38223;50.940;4.034;2022-08-06T08:40:16;3.95;;;1.05;;
52266;SDS011;38223;50.940;4.034;2022-08-06T08:42:54;3.83;;;1.00;;
52266;SDS011;38223;50.940;4.034;2022-08-06T08:45:33;2.33;;;0.80;;
52266;SDS011;38223;50.940;4.034;2022-08-06T08:48:05;2.42;;;0.82;;
52266;SDS011;38223;50.940;4.034;2022-08-06T08:50:40;4.87;;;0.90;;
52266;SDS011;38223;50.940;4.034;2022-08-06T08:56:06;3.80;;;1.12;;
52266;SDS011;38223;50.940;4.034;2022-08-06T08:58:40;3.55;;;1.00;;
52266;SDS011;38223;50.940;4.034;2022-08-06T09:01:14;3.22;;;1.05;;
52266;SDS011;38223;50.940;4.034;2022-08-06T09:03:52;2.92;;;0.70;;
52266;SDS011;38223;50.940;4.034;2022-08-06T09:06:25;2.50;;;0.72;;
52266;SDS011;38223;50.940;4.034;2022-08-06T09:08:55;1.87;;;0.70;;
52266;SDS011;38223;50.940;4.034;2022-08-06T09:11:30;2.37;;;0.80;;
52266;SDS011;38223;50.940;4.034;2022-08-06T09:14:06;3.55;;;0.70;;
52266;SDS011;38223;50.940;4.034;2022-08-06T09:16:39;2.80;;;0.85;;
52266;SDS011;38223;50.940;4.034;2022-08-06T09:19:11;2.20;;;0.90;;
52266;SDS011;38223;50.940;4.034;2022-08-06T09:21:45;4.78;;;0.70;;
52266;SDS011;38223;50.940;4.034;2022-08-06T09:24:16;2.15;;;0.65;;
52266;SDS011;38223;50.940;4.034;2022-08-06T09:29:51;3.92;;;1.10;;
52266;SDS011;38223;50.940;4.034;2022-08-06T09:35:20;2.77;;;0.80;;
52266;SDS011;38223;50.940;4.034;2022-08-06T09:37:58;2.05;;;0.95;;
52266;SDS011;38223;50.940;4.034;2022-08-06T09:40:40;3.85;;;0.80;;
52266;SDS011;38223;50.940;4.034;2022-08-06T09:43:25;1.50;;;0.70;;
52266;SDS011;38223;50.940;4.034;2022-08-06T09:45:44;3.90;;;1.02;;
52266;SDS011;38223;50.940;4.034;2022-08-06T09:48:17;5.28;;;1.15;;
52266;SDS011;38223;50.940;4.034;2022-08-06T09:50:49;1.65;;;1.05;;
52266;SDS011;38223;50.940;4.034;2022-08-06T09:53:21;5.22;;;1.00;;
52266;SDS011;38223;50.940;4.034;2022-08-06T09:55:58;2.92;;;1.07;;
52266;SDS011;38223;50.940;4.034;2022-08-06T09:58:35;2.12;;;0.70;;
52266;SDS011;38223;50.940;4.034;2022-08-06T10:01:14;2.98;;;0.80;;
52266;SDS011;38223;50.940;4.034;2022-08-06T10:03:48;2.98;;;1.10;;
52266;SDS011;38223;50.940;4.034;2022-08-06T10:06:26;3.20;;;0.95;;
52266;SDS011;38223;50.940;4.034;2022-08-06T10:09:12;2.60;;;0.60;;
52266;SDS011;38223;50.940;4.034;2022-08-06T10:11:42;1.77;;;0.82;;
52266;SDS011;38223;50.940;4.034;2022-08-06T10:14:30;3.00;;;0.80;;
52266;SDS011;38223;50.940;4.034;2022-08-06T10:17:07;3.47;;;0.93;;
52266;SDS011;38223;50.940;4.034;2022-08-06T10:19:40;2.08;;;0.90;;
52266;SDS011;38223;50.940;4.034;2022-08-06T10:22:15;1.85;;;0.98;;
52266;SDS011;38223;50.940;4.034;2022-08-06T10:24:48;2.52;;;1.07;;
52266;SDS011;38223;50.940;4.034;2022-08-06T10:27:20;2.10;;;0.80;;
52266;SDS011;38223;50.940;4.034;2022-08-06T10:29:54;4.53;;;0.90;;
52266;SDS011;38223;50.940;4.034;2022-08-06T10:32:33;2.33;;;1.10;;
52266;SDS011;38223;50.940;4.034;2022-08-06T10:35:04;3.90;;;1.15;;
52266;SDS011;38223;50.940;4.034;2022-08-06T10:37:39;1.52;;;0.75;;
52266;SDS011;38223;50.940;4.034;2022-08-06T10:40:13;2.65;;;0.85;;
52266;SDS011;38223;50.940;4.034;2022-08-06T10:42:46;2.20;;;0.72;;
52266;SDS011;38223;50.940;4.034;2022-08-06T10:45:19;4.22;;;1.40;;
52266;SDS011;38223;50.940;4.034;2022-08-06T10:47:54;3.87;;;1.20;;
52266;SDS011;38223;50.940;4.034;2022-08-06T10:50:28;2.12;;;1.17;;
52266;SDS011;38223;50.940;4.034;2022-08-06T10:53:01;5.45;;;1.27;;
52266;SDS011;38223;50.940;4.034;2022-08-06T10:55:34;6.58;;;1.35;;
52266;SDS011;38223;50.940;4.034;2022-08-06T10:58:05;3.80;;;1.00;;
52266;SDS011;38223;50.940;4.034;2022-08-06T11:00:36;2.35;;;0.95;;
52266;SDS011;38223;50.940;4.034;2022-08-06T11:03:12;3.33;;;1.30;;
52266;SDS011;38223;50.940;4.034;2022-08-06T11:06:45;4.53;;;1.30;;
52266;SDS011;38223;50.940;4.034;2022-08-06T11:09:28;3.05;;;1.42;;
52266;SDS011;38223;50.940;4.034;2022-08-06T11:11:43;2.15;;;1.30;;
52266;SDS011;38223;50.940;4.034;2022-08-06T11:14:13;4.72;;;1.42;;
52266;SDS011;38223;50.940;4.034;2022-08-06T11:16:56;3.27;;;1.52;;
52266;SDS011;38223;50.940;4.034;2022-08-06T11:25:00;1.57;;;1.07;;
52266;SDS011;38223;50.940;4.034;2022-08-06T11:27:51;1.62;;;0.98;;
52266;SDS011;38223;50.940;4.034;2022-08-06T11:30:40;2.45;;;1.12;;
52266;SDS011;38223;50.940;4.034;2022-08-06T11:33:17;2.72;;;0.90;;
52266;SDS011;38223;50.940;4.034;2022-08-06T11:35:53;3.02;;;0.65;;
52266;SDS011;38223;50.940;4.034;2022-08-06T11:41:17;2.75;;;0.80;;
52266;SDS011;38223;50.940;4.034;2022-08-06T11:46:35;1.55;;;0.90;;
52266;SDS011;38223;50.940;4.034;2022-08-06T11:49:18;2.50;;;0.53;;
52266;SDS011;38223;50.940;4.034;2022-08-06T11:54:58;0.60;;;0.50;;
52266;SDS011;38223;50.940;4.034;2022-08-06T11:57:21;1.40;;;0.62;;
52266;SDS011;38223;50.940;4.034;2022-08-06T12:00:06;1.30;;;0.60;;
52266;SDS011;38223;50.940;4.034;2022-08-06T12:08:17;2.47;;;0.68;;
52266;SDS011;38223;50.940;4.034;2022-08-06T12:11:26;1.47;;;0.98;;
52266;SDS011;38223;50.940;4.034;2022-08-06T12:13:58;1.55;;;0.65;;
52266;SDS011;38223;50.940;4.034;2022-08-06T12:16:33;2.27;;;0.50;;
52266;SDS011;38223;50.940;4.034;2022-08-06T12:19:11;4.67;;;0.50;;
52266;SDS011;38223;50.940;4.034;2022-08-06T12:21:43;2.40;;;0.50;;
52266;SDS011;38223;50.940;4.034;2022-08-06T12:24:26;2.08;;;0.68;;
52266;SDS011;38223;50.940;4.034;2022-08-06T12:26:55;1.95;;;0.70;;
52266;SDS011;38223;50.940;4.034;2022-08-06T12:29:48;1.15;;;0.70;;
52266;SDS011;38223;50.940;4.034;2022-08-06T12:34:58;1.42;;;0.70;;
52266;SDS011;38223;50.940;4.034;2022-08-06T12:37:37;1.82;;;0.60;;
52266;SDS011;38223;50.940;4.034;2022-08-06T12:40:08;2.72;;;0.80;;
52266;SDS011;38223;50.940;4.034;2022-08-06T12:45:39;2.55;;;0.60;;
52266;SDS011;38223;50.940;4.034;2022-08-06T12:48:10;1.80;;;0.70;;
52266;SDS011;38223;50.940;4.034;2022-08-06T12:50:42;1.02;;;0.50;;
52266;SDS011;38223;50.940;4.034;2022-08-06T12:53:16;3.00;;;0.70;;
52266;SDS011;38223;50.940;4.034;2022-08-06T12:55:53;2.50;;;0.57;;
52266;SDS011;38223;50.940;4.034;2022-08-06T12:58:37;1.57;;;0.72;;
52266;SDS011;38223;50.940;4.034;2022-08-06T13:01:08;1.98;;;0.80;;
52266;SDS011;38223;50.940;4.034;2022-08-06T13:03:43;1.27;;;0.60;;
52266;SDS011;38223;50.940;4.034;2022-08-06T13:06:14;1.82;;;0.70;;
52266;SDS011;38223;50.940;4.034;2022-08-06T13:08:49;2.22;;;0.78;;
52266;SDS011;38223;50.940;4.034;2022-08-06T13:11:33;2.27;;;0.88;;
52266;SDS011;38223;50.940;4.034;2022-08-06T13:14:09;1.90;;;0.60;;
52266;SDS011;38223;50.940;4.034;2022-08-06T13:16:43;1.45;;;0.72;;
52266;SDS011;38223;50.940;4.034;2022-08-06T13:19:17;1.10;;;0.60;;
52266;SDS011;38223;50.940;4.034;2022-08-06T13:21:56;1.65;;;0.70;;
52266;SDS011;38223;50.940;4.034;2022-08-06T13:24:27;1.45;;;0.70;;
52266;SDS011;38223;50.940;4.034;2022-08-06T13:27:30;1.65;;;0.50;;
52266;SDS011;38223;50.940;4.034;2022-08-06T13:30:02;1.42;;;0.60;;
52266;SDS011;38223;50.940;4.034;2022-08-06T13:32:36;3.92;;;0.90;;
52266;SDS011;38223;50.940;4.034;2022-08-06T13:35:09;2.98;;;0.82;;
52266;SDS011;38223;50.940;4.034;2022-08-06T13:37:50;1.52;;;0.90;;
52266;SDS011;38223;50.940;4.034;2022-08-06T13:40:34;2.85;;;0.80;;
52266;SDS011;38223;50.940;4.034;2022-08-06T13:43:15;1.57;;;1.17;;
52266;SDS011;38223;50.940;4.034;2022-08-06T13:45:49;1.22;;;1.10;;
52266;SDS011;38223;50.940;4.034;2022-08-06T13:48:19;3.33;;;0.90;;
52266;SDS011;38223;50.940;4.034;2022-08-06T13:50:50;0.95;;;0.78;;
52266;SDS011;38223;50.940;4.034;2022-08-06T13:53:22;2.65;;;0.72;;
52266;SDS011;38223;50.940;4.034;2022-08-06T13:55:53;1.75;;;1.00;;
52266;SDS011;38223;50.940;4.034;2022-08-06T13:58:25;1.35;;;0.95;;
52266;SDS011;38223;50.940;4.034;2022-08-06T14:00:54;1.35;;;0.90;;
52266;SDS011;38223;50.940;4.034;2022-08-06T14:03:33;1.67;;;1.02;;
52266;SDS011;38223;50.940;4.034;2022-08-06T14:06:02;1.85;;;1.10;;
52266;SDS011;38223;50.940;4.034;2022-08-06T14:08:33;1.87;;;1.10;;
52266;SDS011;38223;50.940;4.034;2022-08-06T14:11:09;2.37;;;1.10;;
52266;SDS011;38223;50.940;4.034;2022-08-06T14:13:44;3.75;;;1.00;;
52266;SDS011;38223;50.940;4.034;2022-08-06T14:16:15;1.20;;;1.10;;
52266;SDS011;38223;50.940;4.034;2022-08-06T14:18:47;1.62;;;1.00;;
52266;SDS011;38223;50.940;4.034;2022-08-06T14:21:21;1.67;;;1.10;;
52266;SDS011;38223;50.940;4.034;2022-08-06T14:23:50;3.17;;;1.00;;
52266;SDS011;38223;50.940;4.034;2022-08-06T14:26:26;2.45;;;1.10;;
52266;SDS011;38223;50.940;4.034;2022-08-06T14:28:55;2.52;;;1.22;;
52266;SDS011;38223;50.940;4.034;2022-08-06T14:31:27;4.25;;;1.72;;
52266;SDS011;38223;50.940;4.034;2022-08-06T14:34:00;2.83;;;1.20;;
52266;SDS011;38223;50.940;4.034;2022-08-06T14:36:33;1.72;;;1.00;;
52266;SDS011;38223;50.940;4.034;2022-08-06T14:39:04;1.85;;;1.12;;
52266;SDS011;38223;50.940;4.034;2022-08-06T14:41:33;2.52;;;1.10;;
52266;SDS011;38223;50.940;4.034;2022-08-06T14:44:24;1.60;;;1.02;;
52266;SDS011;38223;50.940;4.034;2022-08-06T14:47:12;2.20;;;1.00;;
52266;SDS011;38223;50.940;4.034;2022-08-06T14:49:46;2.70;;;1.00;;
52266;SDS011;38223;50.940;4.034;2022-08-06T14:52:18;2.70;;;1.12;;
52266;SDS011;38223;50.940;4.034;2022-08-06T14:54:51;2.35;;;1.00;;
52266;SDS011;38223;50.940;4.034;2022-08-06T14:57:22;2.50;;;1.17;;
52266;SDS011;38223;50.940;4.034;2022-08-06T14:59:56;3.30;;;1.10;;
52266;SDS011;38223;50.940;4.034;2022-08-06T15:02:27;1.30;;;0.80;;
52266;SDS011;38223;50.940;4.034;2022-08-06T15:05:03;4.90;;;1.20;;
52266;SDS011;38223;50.940;4.034;2022-08-06T15:07:34;1.55;;;1.17;;
52266;SDS011;38223;50.940;4.034;2022-08-06T15:10:06;1.47;;;1.12;;
52266;SDS011;38223;50.940;4.034;2022-08-06T15:12:40;1.52;;;1.10;;
52266;SDS011;38223;50.940;4.034;2022-08-06T15:15:09;2.27;;;1.15;;
52266;SDS011;38223;50.940;4.034;2022-08-06T15:17:40;2.02;;;1.15;;
52266;SDS011;38223;50.940;4.034;2022-08-06T15:20:13;2.47;;;1.07;;
52266;SDS011;38223;50.940;4.034;2022-08-06T15:22:49;3.62;;;1.15;;
52266;SDS011;38223;50.940;4.034;2022-08-06T15:25:22;1.55;;;1.20;;
52266;SDS011;38223;50.940;4.034;2022-08-06T15:27:52;2.90;;;1.42;;
52266;SDS011;38223;50.940;4.034;2022-08-06T15:30:23;2.50;;;1.50;;
52266;SDS011;38223;50.940;4.034;2022-08-06T15:32:55;1.50;;;0.98;;
52266;SDS011;38223;50.940;4.034;2022-08-06T15:35:27;2.87;;;1.27;;
52266;SDS011;38223;50.940;4.034;2022-08-06T15:37:56;1.10;;;0.98;;
52266;SDS011;38223;50.940;4.034;2022-08-06T15:40:25;2.02;;;1.02;;
52266;SDS011;38223;50.940;4.034;2022-08-06T15:42:54;2.20;;;1.17;;
52266;SDS011;38223;50.940;4.034;2022-08-06T15:45:22;4.53;;;1.15;;
52266;SDS011;38223;50.940;4.034;2022-08-06T15:48:01;4.15;;;1.35;;
52266;SDS011;38223;50.940;4.034;2022-08-06T15:50:37;1.45;;;0.80;;
52266;SDS011;38223;50.940;4.034;2022-08-06T15:53:10;4.28;;;1.17;;
52266;SDS011;38223;50.940;4.034;2022-08-06T15:55:39;2.27;;;0.85;;
52266;SDS011;38223;50.940;4.034;2022-08-06T15:58:14;1.50;;;0.90;;
52266;SDS011;38223;50.940;4.034;2022-08-06T16:00:46;2.80;;;1.05;;
52266;SDS011;38223;50.940;4.034;2022-08-06T16:03:21;2.50;;;1.15;;
52266;SDS011;38223;50.940;4.034;2022-08-06T16:05:54;1.95;;;0.90;;
52266;SDS011;38223;50.940;4.034;2022-08-06T16:08:28;2.67;;;0.90;;
52266;SDS011;38223;50.940;4.034;2022-08-06T16:11:00;2.77;;;0.93;;
52266;SDS011;38223;50.940;4.034;2022-08-06T16:13:34;2.02;;;1.10;;
52266;SDS011;38223;50.940;4.034;2022-08-06T16:16:07;2.12;;;0.90;;
52266;SDS011;38223;50.940;4.034;2022-08-06T16:18:42;3.08;;;1.20;;
52266;SDS011;38223;50.940;4.034;2022-08-06T16:21:14;2.83;;;0.90;;
52266;SDS011;38223;50.940;4.034;2022-08-06T16:23:47;2.47;;;0.80;;
52266;SDS011;38223;50.940;4.034;2022-08-06T16:26:23;1.80;;;0.93;;
52266;SDS011;38223;50.940;4.034;2022-08-06T16:28:56;1.47;;;0.90;;
52266;SDS011;38223;50.940;4.034;2022-08-06T16:31:26;2.02;;;0.85;;